Adrian, Washington
Current Conditions -  °F | °C
As of 11:53 PM on Wednesday 28 Jan 2015 (Local Time) from KEPH Reporting Station
Overcast Overcast  
Wind Chill: 29°   Ceiling: 1300
Heat Index: 37°   Visibility: 10mi
Dew Point: 34°   Wind: 12mph
Humidity: 89%   Direction: 10°N
Pressure: 30.46"   Gusts: NA
Location:  47.4314°N, 119.485°W
Report Text: KEPH 290753Z AUTO 01010KT 10SM OVC013 03/01 A3046 RMK AO2 SLP328 T00280011 400330000
Loading
Personal Weather Stations






























Interactive Weather Map New forecast layout! Learn more

10-Day Weather Forecast

Advertisements
Track Severe Weather on mobile